createdAt,value
2018-09-01T00:00:23.036Z,46.08
2018-09-01T00:01:23.018Z,46.08
2018-09-01T00:02:23.006Z,46.17
2018-09-01T00:03:23.056Z,45.97
2018-09-01T00:04:22.994Z,45.87
2018-09-01T00:05:22.989Z,46.17
2018-09-01T00:06:22.962Z,45.97
2018-09-01T00:07:23.015Z,46.17
2018-09-01T00:08:22.941Z,45.97
2018-09-01T00:11:40.363Z,46.08
2018-09-01T00:12:40.353Z,46.08
2018-09-01T00:13:40.342Z,45.87
2018-09-01T00:14:40.333Z,46.17
2018-09-01T00:15:40.331Z,46.17
2018-09-01T00:16:40.309Z,46.37
2018-09-01T00:17:40.299Z,46.08
2018-09-01T00:18:40.288Z,46.17
2018-09-01T00:19:40.276Z,46.17
2018-09-01T00:20:40.275Z,46.47
2018-09-01T00:21:40.256Z,46.47
2018-09-01T00:22:40.244Z,46.27
2018-09-01T00:23:40.234Z,46.57
2018-09-01T00:24:40.222Z,46.67
2018-09-01T00:25:40.224Z,46.57
2018-09-01T00:26:40.201Z,46.67
2018-09-01T00:27:40.191Z,46.67
2018-09-01T00:28:40.180Z,46.67
2018-09-01T00:29:40.169Z,46.67
2018-09-01T00:30:40.223Z,46.57
2018-09-01T00:31:40.224Z,46.67
2018-09-01T00:32:40.136Z,46.57
2018-09-01T00:33:40.301Z,46.67
2018-09-01T00:34:40.247Z,46.67
2018-09-01T00:35:40.116Z,46.47
2018-09-01T00:36:40.098Z,46.77
2018-09-01T00:37:40.082Z,46.67
2018-09-01T00:38:40.071Z,46.57
2018-09-01T00:39:40.138Z,46.47
2018-09-01T00:40:40.072Z,46.47
2018-09-01T00:41:40.056Z,46.47
2018-09-01T00:42:40.042Z,46.57
2018-09-01T00:43:40.014Z,46.27
2018-09-01T00:44:40.001Z,46.77
2018-09-01T00:45:39.991Z,46.47
2018-09-01T00:46:39.992Z,46.47
2018-09-01T00:47:39.970Z,46.27
2018-09-01T00:48:39.960Z,46.47
2018-09-01T00:49:39.948Z,46.57
2018-09-01T00:50:39.938Z,46.67
2018-09-01T00:51:39.936Z,46.57
2018-09-01T00:52:39.916Z,46.27
2018-09-01T00:53:39.905Z,46.67
2018-09-01T00:54:39.893Z,46.57
2018-09-01T00:55:39.883Z,46.37
2018-09-01T00:56:39.882Z,46.67
2018-09-01T00:57:39.861Z,46.57
2018-09-01T00:58:39.850Z,46.67
2018-09-01T00:59:39.842Z,46.57
2018-09-01T01:00:39.832Z,46.57
2018-09-01T01:01:39.831Z,46.08
2018-09-01T01:02:39.814Z,46.69
2018-09-01T01:03:39.794Z,46.47
2018-09-01T01:04:39.783Z,46.67
2018-09-01T01:05:39.776Z,46.67
2018-09-01T01:06:39.772Z,46.57
2018-09-01T01:07:39.754Z,46.47
2018-09-01T01:08:39.743Z,46.67
2018-09-01T01:09:39.752Z,46.67
2018-09-01T01:10:39.717Z,46.17
2018-09-01T01:11:39.736Z,46.37
2018-09-01T01:12:39.697Z,46.77
2018-09-01T01:13:39.683Z,46.67
2018-09-01T01:14:39.672Z,46.59
2018-09-01T01:15:39.661Z,46.27
2018-09-01T01:16:39.650Z,46.17
2018-09-01T01:17:39.649Z,46.69
2018-09-01T01:18:39.630Z,46.59
2018-09-01T01:19:39.618Z,46.57
2018-09-01T01:20:39.605Z,46.27
2018-09-01T01:21:39.595Z,46.67
2018-09-01T01:22:39.609Z,46.30
2018-09-01T01:23:39.573Z,46.77
2018-09-01T01:24:39.562Z,46.79
2018-09-01T01:25:39.552Z,46.57
2018-09-01T01:26:39.539Z,46.49
2018-09-01T01:27:39.561Z,46.67
2018-09-01T01:28:39.519Z,46.49
2018-09-01T01:29:39.508Z,46.59
2018-09-01T01:30:39.495Z,46.30
2018-09-01T01:31:39.489Z,46.30
2018-09-01T01:32:39.506Z,46.69
2018-09-01T01:33:39.462Z,46.59
2018-09-01T01:34:39.451Z,46.39
2018-09-01T01:35:39.443Z,46.39
2018-09-01T01:36:39.430Z,46.49
2018-09-01T01:37:39.432Z,46.39
2018-09-01T01:38:39.411Z,46.59
2018-09-01T01:39:39.403Z,46.27
2018-09-01T01:40:39.385Z,46.39
2018-09-01T01:41:39.375Z,46.39
2018-09-01T01:42:39.375Z,46.49
2018-09-01T01:43:39.353Z,46.37
2018-09-01T01:44:39.343Z,46.30
2018-09-01T01:45:39.347Z,46.39
2018-09-01T01:46:39.319Z,46.39
2018-09-01T01:47:39.320Z,46.47
2018-09-01T01:48:39.299Z,46.39
2018-09-01T01:49:39.370Z,46.39
2018-09-01T01:50:39.288Z,46.39
2018-09-01T01:51:39.265Z,46.39
2018-09-01T01:52:39.280Z,46.39
2018-09-01T01:53:39.243Z,46.39
2018-09-01T01:54:39.231Z,46.37
2018-09-01T01:55:39.244Z,46.47
2018-09-01T01:56:39.209Z,46.49
2018-09-01T01:57:39.198Z,46.59
2018-09-01T01:58:39.200Z,46.49
2018-09-01T01:59:39.179Z,46.39
2018-09-01T02:00:39.165Z,46.39
2018-09-01T02:01:39.166Z,46.59
2018-09-01T02:02:39.142Z,46.39
2018-09-01T02:03:39.142Z,46.39
2018-09-01T02:04:39.120Z,46.39
2018-09-01T02:05:39.110Z,46.30
2018-09-01T02:06:39.099Z,46.39
2018-09-01T02:07:39.089Z,46.37
2018-09-01T02:08:39.108Z,46.59
2018-09-01T02:09:39.068Z,46.59
2018-09-01T02:10:39.055Z,46.49
2018-09-01T02:11:39.048Z,46.59
2018-09-01T02:12:39.034Z,46.49
2018-09-01T02:13:39.084Z,46.69
2018-09-01T02:14:39.012Z,46.39
2018-09-01T02:15:39.005Z,46.69
2018-09-01T02:16:38.990Z,46.39
2018-09-01T02:17:38.980Z,46.39
2018-09-01T02:18:38.992Z,46.39
2018-09-01T02:19:38.958Z,46.39
2018-09-01T02:20:38.948Z,46.59
2018-09-01T02:21:38.936Z,46.49
2018-09-01T02:22:38.926Z,46.39
2018-09-01T02:23:38.925Z,46.69
2018-09-01T02:24:38.904Z,46.39
2018-09-01T02:25:38.894Z,46.39
2018-09-01T02:26:38.882Z,46.49
2018-09-01T02:27:38.871Z,46.59
2018-09-01T02:28:38.872Z,46.49
2018-09-01T02:29:38.849Z,46.59
2018-09-01T02:30:38.840Z,46.69
2018-09-01T02:31:38.832Z,46.59
2018-09-01T02:32:38.824Z,46.49
2018-09-01T02:33:38.838Z,46.59
2018-09-01T02:34:38.797Z,46.59
2018-09-01T02:35:38.786Z,46.49
2018-09-01T02:36:38.777Z,46.59
2018-09-01T02:37:38.763Z,46.39
2018-09-01T02:38:38.752Z,46.30
2018-09-01T02:39:38.753Z,46.59
2018-09-01T02:40:38.732Z,46.69
2018-09-01T02:41:38.762Z,46.59
2018-09-01T02:42:38.710Z,46.39
2018-09-01T02:43:38.701Z,46.69
2018-09-01T02:44:38.697Z,46.59
2018-09-01T02:45:38.679Z,46.39
2018-09-01T02:46:38.665Z,46.49
2018-09-01T02:47:38.654Z,46.51
2018-09-01T02:48:38.643Z,46.49
2018-09-01T02:49:38.645Z,46.39
2018-09-01T02:50:38.621Z,46.69
2018-09-01T02:51:38.610Z,46.49
2018-09-01T02:52:38.600Z,46.49
2018-09-01T02:53:38.590Z,46.49
2018-09-01T02:54:38.590Z,46.51
2018-09-01T02:55:38.567Z,46.49
2018-09-01T02:56:38.570Z,46.39
2018-09-01T02:57:38.546Z,46.49
2018-09-01T02:58:38.535Z,46.49
2018-09-01T02:59:38.538Z,46.39
2018-09-01T03:00:38.514Z,46.39
2018-09-01T03:01:38.504Z,46.59
2018-09-01T03:02:38.492Z,46.49
2018-09-01T03:03:38.482Z,46.51
2018-09-01T03:04:38.497Z,46.39
2018-09-01T03:05:38.459Z,46.42
2018-09-01T03:06:38.448Z,46.39
2018-09-01T03:07:38.438Z,46.42
2018-09-01T03:08:38.426Z,46.42
2018-09-01T03:09:38.426Z,46.59
2018-09-01T03:10:38.405Z,46.30
2018-09-01T03:11:38.395Z,46.42
2018-09-01T03:12:38.381Z,46.42
2018-09-01T03:13:38.372Z,46.49
2018-09-01T03:14:38.398Z,46.49
2018-09-01T03:15:38.350Z,46.42
2018-09-01T03:16:38.339Z,46.39
2018-09-01T03:17:38.327Z,46.49
2018-09-01T03:18:38.318Z,46.39
2018-09-01T03:19:38.344Z,46.42
2018-09-01T03:20:38.294Z,46.51
2018-09-01T03:21:38.285Z,46.30
2018-09-01T03:22:38.274Z,46.42
2018-09-01T03:23:38.262Z,46.39
2018-09-01T03:24:38.251Z,46.39
2018-09-01T03:25:38.251Z,46.42
2018-09-01T03:26:38.230Z,46.42
2018-09-01T03:27:38.231Z,46.42
2018-09-01T03:28:38.207Z,46.42
2018-09-01T03:29:38.199Z,46.42
2018-09-01T03:30:38.227Z,46.39
2018-09-01T03:31:38.176Z,46.42
2018-09-01T03:32:38.163Z,46.39
2018-09-01T03:33:38.152Z,46.39
2018-09-01T03:34:38.144Z,46.42
2018-09-01T03:35:38.143Z,46.42
2018-09-01T03:36:38.126Z,46.49
2018-09-01T03:37:38.110Z,46.72
2018-09-01T03:38:38.099Z,46.42
2018-09-01T03:39:38.087Z,46.42
2018-09-01T03:40:38.091Z,46.39
2018-09-01T03:41:38.070Z,46.59
2018-09-01T03:42:38.054Z,46.42
2018-09-01T03:43:38.044Z,46.61
2018-09-01T03:44:38.034Z,46.42
2018-09-01T03:45:38.034Z,46.59
2018-09-01T03:46:38.012Z,46.31
2018-09-01T03:47:38.026Z,46.39
2018-09-01T03:48:37.989Z,46.42
2018-09-01T03:49:37.978Z,46.42
2018-09-01T03:50:37.998Z,46.51
2018-09-01T03:51:37.955Z,46.42
2018-09-01T03:52:37.987Z,46.42
2018-09-01T03:53:37.933Z,46.39
2018-09-01T03:54:37.922Z,46.72
2018-09-01T03:55:37.926Z,46.31
2018-09-01T03:56:37.902Z,46.51
2018-09-01T03:57:37.889Z,46.30
2018-09-01T03:58:37.882Z,46.42
2018-09-01T03:59:37.871Z,46.42
2018-09-01T04:00:37.894Z,46.42
2018-09-01T04:01:37.845Z,46.22
2018-09-01T04:02:37.835Z,46.61
2018-09-01T04:03:37.827Z,46.81
2018-09-01T04:04:37.814Z,46.42
2018-09-01T04:05:37.813Z,46.61
2018-09-01T04:06:37.793Z,46.22
2018-09-01T04:07:37.780Z,46.61
2018-09-01T04:08:37.773Z,46.72
2018-09-01T04:09:37.758Z,46.72
2018-09-01T04:10:37.757Z,46.42
2018-09-01T04:11:37.739Z,46.31
2018-09-01T04:12:37.724Z,46.31
2018-09-01T04:13:37.730Z,46.61
2018-09-01T04:14:37.702Z,46.51
2018-09-01T04:15:37.717Z,46.22
2018-09-01T04:16:37.680Z,46.51
2018-09-01T04:17:37.670Z,46.61
2018-09-01T04:18:37.659Z,46.72
2018-09-01T04:19:37.649Z,46.31
2018-09-01T04:20:37.638Z,46.72
2018-09-01T04:21:37.639Z,46.72
2018-09-01T04:22:37.614Z,46.81
2018-09-01T04:23:37.604Z,46.22
2018-09-01T04:24:37.593Z,46.61
2018-09-01T04:25:37.582Z,46.51
2018-09-01T04:26:37.583Z,46.51
2018-09-01T04:27:37.567Z,46.81
2018-09-01T04:28:37.552Z,46.72
2018-09-01T04:29:37.538Z,46.72
2018-09-01T04:30:37.527Z,46.72
2018-09-01T04:31:37.527Z,46.51
2018-09-01T04:32:37.505Z,46.51
2018-09-01T04:33:37.499Z,46.31
2018-09-01T04:34:37.484Z,46.72
2018-09-01T04:35:37.472Z,46.12
2018-09-01T04:36:37.487Z,46.51
2018-09-01T04:37:37.450Z,46.51
2018-09-01T04:38:37.440Z,46.61
2018-09-01T04:39:37.429Z,46.72
2018-09-01T04:40:37.419Z,46.72
2018-09-01T04:41:37.420Z,46.51
2018-09-01T04:42:37.396Z,46.22
2018-09-01T04:43:37.387Z,46.51
2018-09-01T04:44:37.374Z,46.51
2018-09-01T04:45:37.363Z,46.51
2018-09-01T04:46:37.388Z,46.51
2018-09-01T04:47:37.346Z,46.72
2018-09-01T04:48:37.332Z,46.61
2018-09-01T04:49:37.319Z,46.51
2018-09-01T04:50:37.317Z,46.61
2018-09-01T04:51:37.310Z,46.72
2018-09-01T04:52:37.286Z,46.22
2018-09-01T04:53:37.279Z,46.61
2018-09-01T04:54:37.267Z,46.61
2018-09-01T04:55:37.253Z,46.22
2018-09-01T04:56:37.257Z,46.31
2018-09-01T04:57:37.233Z,46.51
2018-09-01T04:58:37.221Z,46.51
2018-09-01T04:59:37.226Z,46.22
2018-09-01T05:00:37.199Z,46.22
2018-09-01T05:01:37.198Z,46.51
2018-09-01T05:02:37.178Z,46.22
2018-09-01T05:03:37.166Z,46.01
2018-09-01T05:04:37.155Z,46.51
2018-09-01T05:05:37.147Z,46.31
2018-09-01T05:06:37.143Z,46.01
2018-09-01T05:07:37.120Z,46.22
2018-09-01T05:08:37.111Z,46.31
2018-09-01T05:09:37.119Z,46.22
2018-09-01T05:10:37.090Z,46.31
2018-09-01T05:11:37.090Z,46.12
2018-09-01T05:12:37.067Z,46.12
2018-09-01T05:13:37.056Z,46.01
2018-09-01T05:14:37.044Z,46.01
2018-09-01T05:15:37.032Z,46.01
2018-09-01T05:16:37.032Z,46.42
2018-09-01T05:17:37.012Z,46.72
2018-09-01T05:18:37.001Z,46.12
2018-09-01T05:19:36.989Z,46.04
2018-09-01T05:20:36.979Z,46.04
2018-09-01T05:21:36.977Z,46.14
2018-09-01T05:22:36.965Z,46.01
2018-09-01T05:23:36.943Z,45.92
2018-09-01T05:24:36.935Z,46.84
2018-09-01T05:25:36.921Z,46.04
2018-09-01T05:26:36.921Z,46.04
2018-09-01T05:27:36.900Z,46.01
2018-09-01T05:28:36.889Z,46.01
2018-09-01T05:29:36.876Z,46.01
2018-09-01T05:30:36.875Z,46.04
2018-09-01T05:31:36.864Z,46.04
2018-09-01T05:32:36.862Z,46.04
2018-09-01T05:33:36.831Z,46.14
2018-09-01T05:34:36.820Z,46.72
2018-09-01T05:35:36.811Z,46.04
2018-09-01T05:36:36.942Z,46.12
2018-09-01T05:37:36.786Z,46.04
2018-09-01T05:38:36.776Z,46.01
2018-09-01T05:39:36.764Z,45.84
2018-09-01T05:40:36.769Z,46.12
2018-09-01T05:41:36.742Z,46.22
2018-09-01T05:42:36.741Z,46.14
2018-09-01T05:43:36.725Z,46.14
2018-09-01T05:44:36.708Z,46.22
2018-09-01T05:45:36.746Z,46.01
2018-09-01T05:46:36.687Z,46.12
2018-09-01T05:47:36.688Z,46.22
2018-09-01T05:48:36.665Z,46.12
2018-09-01T05:49:36.654Z,46.14
2018-09-01T05:50:36.678Z,46.01
2018-09-01T05:51:36.630Z,46.24
2018-09-01T05:52:36.631Z,46.22
2018-09-01T05:53:36.608Z,46.12
2018-09-01T05:54:36.597Z,46.12
2018-09-01T05:55:36.608Z,46.01
2018-09-01T05:56:36.575Z,46.31
2018-09-01T05:57:36.576Z,46.12
2018-09-01T05:58:36.552Z,46.31
2018-09-01T05:59:36.542Z,46.31
2018-09-01T06:00:36.561Z,46.34
2018-09-01T06:01:36.520Z,46.12
2018-09-01T06:02:36.520Z,46.12
2018-09-01T06:03:36.497Z,46.31
2018-09-01T06:04:36.487Z,46.12
2018-09-01T06:05:36.475Z,46.01
2018-09-01T06:06:36.463Z,46.22
2018-09-01T06:07:36.463Z,46.31
2018-09-01T06:08:36.459Z,46.01
2018-09-01T06:09:36.430Z,46.31
2018-09-01T06:10:36.421Z,46.12
2018-09-01T06:11:36.412Z,45.82
2018-09-01T06:12:36.409Z,46.22
2018-09-01T06:13:36.389Z,46.42
2018-09-01T06:14:36.377Z,46.12
2018-09-01T06:15:36.366Z,46.22
2018-09-01T06:16:36.357Z,46.22
2018-09-01T06:17:36.383Z,46.31
2018-09-01T06:18:36.356Z,45.82
2018-09-01T06:19:36.325Z,46.12
2018-09-01T06:20:36.311Z,46.12
2018-09-01T06:21:36.301Z,46.31
2018-09-01T06:22:36.300Z,46.12
2018-09-01T06:23:36.280Z,45.90
2018-09-01T06:24:36.268Z,45.22
2018-09-01T06:25:36.259Z,46.01
2018-09-01T06:26:36.248Z,45.92
2018-09-01T06:27:36.246Z,46.12
2018-09-01T06:28:36.226Z,46.12
2018-09-01T06:29:36.213Z,45.72
2018-09-01T06:30:36.202Z,45.12
2018-09-01T06:31:36.203Z,46.12
2018-09-01T06:32:36.191Z,45.30
2018-09-01T06:33:36.171Z,45.70
2018-09-01T06:34:36.160Z,45.92
2018-09-01T06:35:36.148Z,45.72
2018-09-01T06:36:36.138Z,46.09
2018-09-01T06:37:36.214Z,45.70
2018-09-01T06:38:36.120Z,45.22
2018-09-01T06:39:36.105Z,45.30
2018-09-01T06:40:36.094Z,45.10
2018-09-01T06:41:36.098Z,45.30
2018-09-01T06:42:36.084Z,45.90
2018-09-01T06:43:36.060Z,45.10
2018-09-01T06:44:36.052Z,45.10
2018-09-01T06:45:36.040Z,45.00
2018-09-01T06:46:36.030Z,45.10
2018-09-01T06:47:36.028Z,45.30
2018-09-01T06:48:36.006Z,45.40
2018-09-01T06:49:35.998Z,45.20
2018-09-01T06:50:35.983Z,45.10
2018-09-01T06:51:36.036Z,45.10
2018-09-01T06:52:35.987Z,45.10
2018-09-01T06:53:35.954Z,45.20
2018-09-01T06:54:35.948Z,45.10
2018-09-01T06:55:35.929Z,45.30
2018-09-01T06:56:35.917Z,45.10
2018-09-01T06:57:35.962Z,45.30
2018-09-01T06:58:35.906Z,45.10
2018-09-01T06:59:35.886Z,45.30
2018-09-01T07:00:35.875Z,45.30
2018-09-01T07:01:35.861Z,45.10
2018-09-01T07:02:35.850Z,45.30
2018-09-01T07:03:35.851Z,45.30
2018-09-01T07:04:35.850Z,45.10
2018-09-01T07:05:35.819Z,45.28
2018-09-01T07:06:35.817Z,45.28
2018-09-01T07:07:35.795Z,45.08
2018-09-01T07:08:35.806Z,45.30
2018-09-01T07:09:35.787Z,45.10
2018-09-01T07:10:35.766Z,45.08
2018-09-01T07:11:35.751Z,45.30
2018-09-01T07:12:35.762Z,45.28
2018-09-01T07:13:35.743Z,45.20
2018-09-01T07:14:35.718Z,44.88
2018-09-01T07:15:35.709Z,45.28
2018-09-01T07:16:35.696Z,45.08
2018-09-01T07:17:35.694Z,45.28
2018-09-01T07:18:35.687Z,45.28
2018-09-01T07:19:35.664Z,45.28
2018-09-01T07:20:35.653Z,45.28
2018-09-01T07:21:35.642Z,45.28
2018-09-01T07:22:35.636Z,45.28
2018-09-01T07:23:35.632Z,45.18
2018-09-01T07:24:35.609Z,45.28
2018-09-01T07:25:35.602Z,45.08
2018-09-01T07:26:35.597Z,45.28
2018-09-01T07:27:35.592Z,45.78
2018-09-01T07:28:35.579Z,45.78
2018-09-01T07:29:35.556Z,45.18
2018-09-01T07:30:35.747Z,45.78
2018-09-01T07:31:35.944Z,45.65
2018-09-01T07:32:35.524Z,45.78
2018-09-01T07:33:35.569Z,45.57
2018-09-01T07:34:35.503Z,45.75
2018-09-01T07:35:35.495Z,45.67
2018-09-01T07:36:35.481Z,45.65
2018-09-01T07:37:35.478Z,45.75
2018-09-01T07:38:35.470Z,45.67
2018-09-01T07:39:35.447Z,45.78
2018-09-01T07:40:35.461Z,45.75
2018-09-01T07:41:35.427Z,45.55
2018-09-01T07:42:35.416Z,45.65
2018-09-01T07:43:35.415Z,45.55
2018-09-01T07:44:35.396Z,45.55
2018-09-01T07:45:35.384Z,45.65
2018-09-01T07:46:35.382Z,45.65
2018-09-01T07:47:35.360Z,45.55
2018-09-01T07:48:35.391Z,45.55
2018-09-01T07:49:35.341Z,45.65
2018-09-01T07:50:35.359Z,45.55
2018-09-01T07:51:35.322Z,45.36
2018-09-01T07:52:35.310Z,45.55
2018-09-01T07:53:35.325Z,45.36
2018-09-01T07:54:35.351Z,45.53
2018-09-01T07:55:35.282Z,45.55
2018-09-01T07:56:35.265Z,45.33
2018-09-01T07:57:35.265Z,45.33
2018-09-01T07:58:35.258Z,45.45
2018-09-01T07:59:35.233Z,45.33
2018-09-01T08:00:35.230Z,45.63
2018-09-01T08:01:35.213Z,45.53
2018-09-01T08:02:35.206Z,45.53
2018-09-01T08:03:35.251Z,45.33
2018-09-01T08:04:35.179Z,45.53
2018-09-01T08:05:35.234Z,45.45
2018-09-01T08:06:35.155Z,45.43
2018-09-01T08:07:35.221Z,45.43
2018-09-01T08:08:35.171Z,45.43
2018-09-01T08:09:35.125Z,45.33
2018-09-01T08:10:35.112Z,45.36
2018-09-01T08:11:35.103Z,45.53
2018-09-01T08:12:35.092Z,45.36
2018-09-01T08:13:35.843Z,45.33
2018-09-01T08:14:35.122Z,45.53
2018-09-01T08:15:35.064Z,45.36
2018-09-01T08:16:35.051Z,45.53
2018-09-01T08:17:35.037Z,45.53
2018-09-01T08:18:35.037Z,45.53
2018-09-01T08:19:35.046Z,45.33
2018-09-01T08:20:35.009Z,45.33
2018-09-01T08:21:34.994Z,45.55
2018-09-01T08:22:34.996Z,45.33
2018-09-01T08:23:35.187Z,45.33
2018-09-01T08:24:34.978Z,45.33
2018-09-01T08:25:34.951Z,45.63
2018-09-01T08:26:34.947Z,45.53
2018-09-01T08:27:34.929Z,45.53
2018-09-01T08:28:34.942Z,45.33
2018-09-01T08:29:34.956Z,45.43
2018-09-01T08:30:34.912Z,45.53
2018-09-01T08:31:34.896Z,45.53
2018-09-01T08:32:34.874Z,45.53
2018-09-01T08:33:34.920Z,45.43
2018-09-01T08:34:34.868Z,45.53
2018-09-01T08:35:34.843Z,45.53
2018-09-01T08:36:34.832Z,45.63
2018-09-01T08:37:34.827Z,45.33
2018-09-01T08:38:34.839Z,45.63
2018-09-01T08:39:34.808Z,45.63
2018-09-01T08:40:34.787Z,45.63
2018-09-01T08:41:34.798Z,45.53
2018-09-01T08:42:34.764Z,45.43
2018-09-01T08:43:34.759Z,45.33
2018-09-01T08:44:34.758Z,45.43
2018-09-01T08:45:34.731Z,45.23
2018-09-01T08:46:34.720Z,45.33
2018-09-01T08:47:34.734Z,45.63
2018-09-01T08:48:34.809Z,45.33
2018-09-01T08:49:34.774Z,45.33
2018-09-01T08:50:34.859Z,45.63
2018-09-01T08:51:34.704Z,45.43
2018-09-01T08:52:34.653Z,45.33
2018-09-01T08:53:34.654Z,45.53
2018-09-01T08:54:34.671Z,45.43
2018-09-01T08:55:34.618Z,45.41
2018-09-01T08:56:34.657Z,45.51
2018-09-01T08:57:34.603Z,45.63
2018-09-01T08:58:34.602Z,45.33
2018-09-01T08:59:34.675Z,45.53
2018-09-01T09:00:34.574Z,45.43
2018-09-01T09:01:34.550Z,45.33
2018-09-01T09:02:34.597Z,45.33
2018-09-01T09:03:34.551Z,45.73
2018-09-01T09:04:34.527Z,45.43
2018-09-01T09:05:34.639Z,45.53
2018-09-01T09:06:34.499Z,45.53
2018-09-01T09:07:34.485Z,45.53
2018-09-01T09:08:34.476Z,45.51
2018-09-01T09:09:34.473Z,45.33
2018-09-01T09:10:34.449Z,45.63
2018-09-01T09:11:34.499Z,45.63
2018-09-01T09:12:34.429Z,45.51
2018-09-01T09:13:37.167Z,45.61
2018-09-01T09:14:34.469Z,45.51
2018-09-01T09:15:34.426Z,45.53
2018-09-01T09:16:34.380Z,45.53
2018-09-01T09:17:34.386Z,45.63
2018-09-01T09:18:34.386Z,45.53
2018-09-01T09:19:34.396Z,45.23
2018-09-01T09:20:34.349Z,45.73
2018-09-01T09:21:34.359Z,45.63
2018-09-01T09:22:34.321Z,45.14
2018-09-01T09:23:34.304Z,45.73
2018-09-01T09:24:34.300Z,45.14
2018-09-01T09:25:34.279Z,45.73
2018-09-01T09:26:34.553Z,45.03
2018-09-01T09:27:34.257Z,45.23
2018-09-01T09:28:34.251Z,45.23
2018-09-01T09:29:34.312Z,45.23
2018-09-01T09:30:34.245Z,45.73
2018-09-01T09:31:34.218Z,45.14
2018-09-01T09:32:34.203Z,45.23
2018-09-01T09:33:34.198Z,45.14
2018-09-01T09:34:34.270Z,45.14
2018-09-01T09:35:34.170Z,45.23
2018-09-01T09:36:34.167Z,45.73
2018-09-01T09:37:34.150Z,45.14
2018-09-01T09:38:34.138Z,45.23
2018-09-01T09:39:34.144Z,45.23
2018-09-01T09:40:34.115Z,45.14
2018-09-01T09:41:34.121Z,45.23
2018-09-01T09:42:34.098Z,45.23
2018-09-01T09:43:34.081Z,45.73
2018-09-01T09:44:34.082Z,45.73
2018-09-01T09:45:34.067Z,45.23
2018-09-01T09:46:34.071Z,45.14
2018-09-01T09:47:34.036Z,45.23
2018-09-01T09:48:34.026Z,45.63
2018-09-01T09:49:34.070Z,45.14
2018-09-01T09:50:34.003Z,45.23
2018-09-01T09:51:34.009Z,45.14
2018-09-01T09:52:34.157Z,45.15
2018-09-01T09:53:33.992Z,45.63
2018-09-01T09:54:33.973Z,45.53
2018-09-01T09:55:33.958Z,45.73
2018-09-01T09:56:33.938Z,45.73
2018-09-01T09:57:33.927Z,45.65
2018-09-01T09:58:33.932Z,45.53
2018-09-01T09:59:33.905Z,45.65
2018-09-01T10:00:33.906Z,45.55
2018-09-01T10:01:33.886Z,45.43
2018-09-01T10:02:33.907Z,45.53
2018-09-01T10:03:33.865Z,45.33
2018-09-01T10:04:33.862Z,45.53
2018-09-01T10:05:33.939Z,45.63
2018-09-01T10:06:33.846Z,45.53
2018-09-01T10:07:33.820Z,45.53
2018-09-01T10:08:33.809Z,45.63
2018-09-01T10:09:33.799Z,45.53
2018-09-01T10:10:33.818Z,45.53
2018-09-01T10:11:33.777Z,45.43
2018-09-01T10:12:33.768Z,45.63
2018-09-01T10:13:33.756Z,45.55
2018-09-01T10:14:33.742Z,45.45
2018-09-01T10:15:33.742Z,45.36
2018-09-01T10:16:33.743Z,45.33
2018-09-01T10:17:34.730Z,45.55
2018-09-01T10:18:33.703Z,45.53
2018-09-01T10:19:33.688Z,45.43
2018-09-01T10:20:33.790Z,45.43
2018-09-01T10:21:33.668Z,45.33
2018-09-01T10:22:33.657Z,45.45
2018-09-01T10:23:33.646Z,45.33
2018-09-01T10:24:33.635Z,45.33
2018-09-01T10:25:33.635Z,45.43
2018-09-01T10:26:33.613Z,45.45
2018-09-01T10:27:33.619Z,45.45
2018-09-01T10:28:33.596Z,45.43
2018-09-01T10:29:33.599Z,45.43
2018-09-01T10:30:33.583Z,45.65
2018-09-01T10:31:33.560Z,45.63
2018-09-01T10:32:33.568Z,45.53
2018-09-01T10:33:33.599Z,45.43
2018-09-01T10:34:33.530Z,45.33
2018-09-01T10:35:33.815Z,45.36
2018-09-01T10:36:33.504Z,45.53
2018-09-01T10:37:33.494Z,45.63
2018-09-01T10:38:33.571Z,45.26
2018-09-01T10:39:33.472Z,45.53
2018-09-01T10:40:33.493Z,44.93
2018-09-01T10:41:33.458Z,45.26
2018-09-01T10:42:33.438Z,45.23
2018-09-01T10:43:33.428Z,45.63
2018-09-01T10:44:33.429Z,45.73
2018-09-01T10:45:33.420Z,45.53
2018-09-01T10:46:33.396Z,45.85
2018-09-01T10:47:33.384Z,45.75
2018-09-01T10:48:33.397Z,45.15
2018-09-01T10:49:33.362Z,45.14
2018-09-01T10:50:33.585Z,45.15
2018-09-01T10:51:33.342Z,45.14
2018-09-01T10:52:33.395Z,45.55
2018-09-01T10:53:33.321Z,45.06
2018-09-01T10:54:33.314Z,44.93
2018-09-01T10:55:33.770Z,45.15
2018-09-01T10:56:33.288Z,45.23
2018-09-01T10:57:33.313Z,45.26
2018-09-01T10:58:33.265Z,44.66
2018-09-01T10:59:33.480Z,44.46
2018-09-01T11:00:33.258Z,44.56
2018-09-01T11:01:33.233Z,44.44
2018-09-01T11:02:33.477Z,44.56
2018-09-01T11:03:33.211Z,44.46
2018-09-01T11:04:33.203Z,44.56
2018-09-01T11:05:33.288Z,44.56
2018-09-01T11:06:33.189Z,44.46
2018-09-01T11:07:33.181Z,45.06
2018-09-01T11:08:33.157Z,44.66
2018-09-01T11:09:33.146Z,44.66
2018-09-01T11:10:33.151Z,44.56
2018-09-01T11:11:33.145Z,44.66
2018-09-01T11:12:33.114Z,44.46
2018-09-01T11:13:33.104Z,44.46
2018-09-01T11:14:33.106Z,44.56
2018-09-01T11:15:33.112Z,44.66
2018-09-01T11:16:33.069Z,44.56
2018-09-01T11:17:33.077Z,44.76
2018-09-01T11:18:33.052Z,44.76
2018-09-01T11:19:33.038Z,44.76
2018-09-01T11:20:33.065Z,44.96
2018-09-01T11:21:33.028Z,44.85
2018-09-01T11:22:33.007Z,44.85
2018-09-01T11:23:33.011Z,44.76
2018-09-01T11:24:33.000Z,44.85
2018-09-01T11:25:32.976Z,44.85
2018-09-01T11:26:32.973Z,44.74
2018-09-01T11:27:33.055Z,44.96
2018-09-01T11:28:32.986Z,44.96
2018-09-01T11:29:32.929Z,44.76
2018-09-01T11:30:32.919Z,44.96
2018-09-01T11:31:32.917Z,44.84
2018-09-01T11:32:32.898Z,45.06
2018-09-01T11:33:32.885Z,44.85
2018-09-01T11:34:32.900Z,44.76
2018-09-01T11:35:32.878Z,44.76
2018-09-01T11:36:32.967Z,44.84
2018-09-01T11:37:32.843Z,45.06
2018-09-01T11:38:32.833Z,45.14
2018-09-01T11:39:32.821Z,45.06
2018-09-01T11:40:32.813Z,45.14
2018-09-01T11:41:32.822Z,44.85
2018-09-01T11:42:32.823Z,44.96
2018-09-01T11:43:32.777Z,44.85
2018-09-01T11:44:32.765Z,44.96
2018-09-01T11:45:32.755Z,44.93
2018-09-01T11:46:32.755Z,44.96
2018-09-01T11:47:32.732Z,45.06
2018-09-01T11:48:32.758Z,44.96
2018-09-01T11:49:32.711Z,44.96
2018-09-01T11:50:32.724Z,44.96
2018-09-01T11:51:32.714Z,45.15
2018-09-01T11:52:32.677Z,45.15
2018-09-01T11:53:32.767Z,45.15
2018-09-01T11:54:32.657Z,44.96
2018-09-01T11:55:32.646Z,45.06
2018-09-01T11:56:32.649Z,44.96
2018-09-01T11:57:32.649Z,45.06
2018-09-01T11:58:32.669Z,44.85
2018-09-01T11:59:32.601Z,44.85
2018-09-01T12:00:32.595Z,44.96
2018-09-01T12:01:32.590Z,44.85
2018-09-01T12:02:32.578Z,44.85
2018-09-01T12:03:32.566Z,44.96
2018-09-01T12:04:32.571Z,44.76
2018-09-01T12:05:32.535Z,44.85
2018-09-01T12:06:32.540Z,44.96
2018-09-01T12:07:32.512Z,44.96
2018-09-01T12:08:32.503Z,45.26
2018-09-01T12:09:32.493Z,44.76
2018-09-01T12:10:32.482Z,44.76
2018-09-01T12:11:32.544Z,44.76
2018-09-01T12:12:32.463Z,44.76
2018-09-01T12:13:32.459Z,45.15
2018-09-01T12:14:32.437Z,45.28
2018-09-01T12:15:32.427Z,44.85
2018-09-01T12:16:32.433Z,45.15
2018-09-01T12:17:32.404Z,44.85
2018-09-01T12:18:32.394Z,45.26
2018-09-01T12:19:32.383Z,44.76
2018-09-01T12:20:32.386Z,45.45
2018-09-01T12:21:32.388Z,44.66
2018-09-01T12:22:32.350Z,45.45
2018-09-01T12:23:32.340Z,44.85
2018-09-01T12:24:32.329Z,45.03
2018-09-01T12:25:32.318Z,44.85
2018-09-01T12:26:32.318Z,45.15
2018-09-01T12:27:32.316Z,44.44
2018-09-01T12:28:32.286Z,45.15
2018-09-01T12:29:32.286Z,44.36
2018-09-01T12:30:32.270Z,45.06
2018-09-01T12:31:32.265Z,44.44
2018-09-01T12:32:32.260Z,44.84
2018-09-01T12:33:32.232Z,44.34
2018-09-01T12:34:32.222Z,44.34
2018-09-01T12:35:32.230Z,44.34
2018-09-01T12:36:32.260Z,44.74
2018-09-01T12:37:32.190Z,44.93
2018-09-01T12:38:32.177Z,44.74
2018-09-01T12:39:32.240Z,44.93
2018-09-01T12:40:32.171Z,44.74
2018-09-01T12:41:32.159Z,44.74
2018-09-01T12:42:32.139Z,44.74
2018-09-01T12:43:32.123Z,44.93
2018-09-01T12:44:32.115Z,44.93
2018-09-01T12:45:32.102Z,44.74
2018-09-01T12:46:32.151Z,44.93
2018-09-01T12:47:32.083Z,45.33
2018-09-01T12:48:32.068Z,44.93
2018-09-01T12:49:32.059Z,44.76
2018-09-01T12:50:32.047Z,44.96
2018-09-01T12:51:32.066Z,44.93
2018-09-01T12:52:32.027Z,44.64
2018-09-01T12:53:32.015Z,44.14
2018-09-01T12:54:32.013Z,44.85